Briefing drone pour Loriol-sur-drome

Rechercher une autre localisation

Conditions de vol :


Nous sommes le : Dimanche 03 juillet 2022
Il est 08:41 UTC (10:41 LT)

Lever de soleil : 03:34 UTC (05:34 LT)
Coucher de soleil : 19:55 UTC (21:55 LT)

Météo

L'essentiel des conditions de vol

VIGILANCE MÉTÉO FRANCE - Drôme (26)
Vigilance Jaune : Canicule / Orages
CARTES DES FRONTS
METAR de LFLU
LFLU 030830Z AUTO VRB02KT CAVOK 26/14 Q1018

Date d'émission: 03/07/2022
Heure d'émission: 08:30 UTC
Vent: Variable 2 KT (4 km/h)
Visibilité horizontale: > 10 km
Plafond : Plafond et visibilité OK (CAVOK)
Température: 26 °C
Point de rosée: 14 °C
Humidité: 48%
Pression (QNH): 1018 hPa
Prévision 24h pour Valence (13 km)
Vent : 12° pour 4 KT (13 km/h)
Temperature Maxi: 18 °C
Temperature Min: 18 °C
Humidité : 87%
Condition : Couvert



Warning: count(): Parameter must be an array or an object that implements Countable in /homepages/6/d509196549/htdocs/droneoxygene/briefing.php on line 743
WEBCAM POUR LORIOL-SUR-DROME

Réglementation

Voler en sécurité

CARTES AERONAUTIQUE 1/500.000
CARTES VAC (LFLU)
SUP AIP




Chargement des AIP...
NOTAM (LORIOL-SUR-DROME + Terrain à proximité / FIR )




Chargement des NOTAMS...
CONTACT PREFECTURE 26
Drôme (26) : ddt-satem@drome.gouv.fr


Avertissement : Les données mises à disposition sont indicatives. Oxygène Drone ne pourra être tenu responsable de dégâts causés aux biens et aux personnes.